Time;durP1;ratioP1;P1;durP2;ratioP2;P2;SDS_P1;SDS_P2;PMS_P1;PMS_P2;Temp;Humidity;BMP_temperature;BMP_pressure;BME280_temperature;BME280_humidity;BME280_pressure;Samples;Min_cycle;Max_cycle;Signal;HPM_P1;HPM_P2
2021/06/11 00:02:02;;;;;;;7.72;5.00;;;;;;;14.71;63.12;100719.88;1574071;86;27607;-76
2021/06/11 00:04:29;;;;;;;7.78;4.60;;;;;;;14.66;63.22;100720.51;1614296;86;25863;-76
2021/06/11 00:06:56;;;;;;;9.65;5.42;;;;;;;14.62;63.34;100719.27;1658377;84;26559;-77
2021/06/11 00:09:23;;;;;;;8.23;5.20;;;;;;;14.61;63.68;100719.78;1650410;86;25947;-77
2021/06/11 00:11:50;;;;;;;13.40;5.55;;;;;;;14.61;63.77;100720.30;1587035;87;26606;-77
2021/06/11 00:14:17;;;;;;;8.98;5.53;;;;;;;14.59;63.92;100721.03;1620973;85;27491;-76
2021/06/11 00:16:44;;;;;;;8.70;5.20;;;;;;;14.56;63.83;100716.08;1674519;84;25767;-77
2021/06/11 00:19:11;;;;;;;9.30;5.03;;;;;;;14.56;64.04;100720.92;1675247;84;26452;-77
2021/06/11 00:21:38;;;;;;;6.90;5.00;;;;;;;14.51;63.89;100715.86;1631244;84;26084;-77
2021/06/11 00:24:06;;;;;;;10.28;5.67;;;;;;;14.43;63.82;100722.31;1657756;84;25780;-77
2021/06/11 00:26:33;;;;;;;13.53;8.00;;;;;;;14.35;64.09;100723.84;1679705;84;28132;-77
2021/06/11 00:29:00;;;;;;;8.73;5.65;;;;;;;14.32;64.37;100725.63;1672451;84;25660;-76
2021/06/11 00:31:27;;;;;;;11.03;5.95;;;;;;;14.28;64.28;100723.02;1633437;84;26066;-76
2021/06/11 00:33:54;;;;;;;8.50;5.83;;;;;;;14.23;64.44;100722.80;1600122;85;26498;-77
2021/06/11 00:36:21;;;;;;;12.03;5.95;;;;;;;14.21;64.70;100720.83;1631507;86;25918;-77
2021/06/11 00:38:49;;;;;;;8.20;6.05;;;;;;;14.19;64.80;100718.02;1633766;85;27456;-77
2021/06/11 00:41:16;;;;;;;7.55;5.37;;;;;;;14.15;64.92;100718.97;1648734;84;25887;-77
2021/06/11 00:43:43;;;;;;;6.15;5.40;;;;;;;14.09;64.84;100720.30;1650626;85;26798;-77
2021/06/11 00:46:10;;;;;;;14.40;6.22;;;;;;;14.03;64.81;100717.09;1672980;84;25935;-77
2021/06/11 00:48:37;;;;;;;10.85;6.00;;;;;;;14.00;65.19;100707.56;1641776;86;25959;-77
2021/06/11 00:51:04;;;;;;;10.20;6.20;;;;;;;13.98;65.27;100716.88;1643606;85;27393;-76
2021/06/11 00:53:32;;;;;;;10.78;5.58;;;;;;;13.95;65.13;100712.72;1654821;84;26574;-76
2021/06/11 00:55:59;;;;;;;6.20;5.60;;;;;;;13.94;65.21;100712.43;1643498;86;26096;-76
2021/06/11 00:58:26;;;;;;;8.75;6.08;;;;;;;13.94;65.32;100709.20;1584185;88;26424;-77
2021/06/11 01:00:53;;;;;;;8.28;5.80;;;;;;;13.93;65.28;100704.02;1600900;86;26577;-76
2021/06/11 01:03:20;;;;;;;6.75;5.83;;;;;;;13.94;65.48;100707.84;1564182;87;28776;-76
2021/06/11 01:05:47;;;;;;;8.80;5.62;;;;;;;13.94;65.51;100705.70;1666213;84;25839;-76
2021/06/11 01:08:17;;;;;;;8.73;6.22;;;;;;;13.95;65.59;100705.99;1644897;85;26675;-76
2021/06/11 01:10:47;;;;;;;12.03;6.57;;;;;;;13.97;65.79;100709.81;1569159;88;25976;-76
2021/06/11 01:13:16;;;;;;;10.58;5.75;;;;;;;13.94;65.70;100708.39;1593961;88;25938;-76
2021/06/11 01:15:44;;;;;;;9.10;6.37;;;;;;;13.89;65.65;100702.78;1609260;88;28167;-76
2021/06/11 01:18:12;;;;;;;13.55;5.75;;;;;;;13.89;65.82;100703.62;1622543;87;26633;-76
2021/06/11 01:20:39;;;;;;;9.73;6.05;;;;;;;13.90;65.99;100708.46;1596877;87;25842;-76
2021/06/11 01:23:31;;;;;;;13.32;6.47;;;;;;;13.89;66.19;100702.27;1650263;84;25923;-76
2021/06/11 01:26:28;;;;;;;10.35;6.58;;;;;;;13.90;66.32;100703.08;1674827;84;25842;-76
2021/06/11 01:29:06;;;;;;;8.50;6.08;;;;;;;13.87;66.28;100695.43;1651719;84;27337;-76
2021/06/11 01:31:36;;;;;;;8.95;5.85;;;;;;;13.84;66.31;100696.66;1673929;84;25826;-76
2021/06/11 01:34:14;;;;;;;8.05;6.00;;;;;;;13.80;66.29;100694.58;1651045;85;26562;-77
2021/06/11 01:36:49;;;;;;;10.43;6.45;;;;;;;13.78;66.33;100699.34;1640150;85;27429;-76
2021/06/11 01:39:19;;;;;;;10.32;6.65;;;;;;;13.73;66.50;100700.47;1673142;84;26327;-76
2021/06/11 01:41:48;;;;;;;8.60;6.62;;;;;;;13.71;66.78;100695.80;1666639;84;28139;-76
2021/06/11 01:44:17;;;;;;;10.38;7.10;;;;;;;13.69;66.71;100696.02;1637840;84;26102;-77
2021/06/11 01:46:45;;;;;;;9.78;6.05;;;;;;;13.64;66.65;100697.67;1617396;87;26129;-76
2021/06/11 01:49:15;;;;;;;13.05;6.50;;;;;;;13.58;66.57;100701.19;1639484;85;26494;-77
2021/06/11 01:51:44;;;;;;;6.30;5.70;;;;;;;13.52;66.44;100704.16;1650731;85;25814;-76
2021/06/11 01:54:13;;;;;;;9.00;5.55;;;;;;;13.48;66.51;100710.14;1633692;85;27669;-76
2021/06/11 01:56:41;;;;;;;7.58;5.75;;;;;;;13.36;66.38;100708.58;1624875;86;25814;-76
2021/06/11 01:59:09;;;;;;;7.47;6.28;;;;;;;13.28;66.37;100714.11;1594302;87;26714;-76
2021/06/11 02:01:37;;;;;;;10.08;6.03;;;;;;;13.21;66.59;100713.28;1618694;86;25818;-77
2021/06/11 02:04:05;;;;;;;7.28;5.85;;;;;;;13.15;66.59;100702.78;1642886;86;26501;-76
2021/06/11 02:06:34;;;;;;;7.28;6.17;;;;;;;13.12;66.71;100703.71;1624020;85;27541;-76
2021/06/11 02:09:03;;;;;;;9.40;6.22;;;;;;;13.06;66.70;100706.70;1619773;86;26738;-76
2021/06/11 02:11:30;;;;;;;10.18;7.47;;;;;;;13.02;66.79;100706.72;1639814;85;25887;-76
2021/06/11 02:13:58;;;;;;;10.25;7.50;;;;;;;12.99;67.12;100706.30;1675516;84;26547;-76
2021/06/11 02:16:28;;;;;;;11.35;8.05;;;;;;;12.98;67.23;100714.08;1655742;84;25629;-76
2021/06/11 02:19:01;;;;;;;10.30;6.85;;;;;;;12.96;67.37;100710.22;1644379;86;27431;-77
2021/06/11 02:21:29;;;;;;;7.12;6.22;;;;;;;12.95;67.26;100714.46;1673886;84;25841;-76
2021/06/11 02:23:57;;;;;;;12.53;6.97;;;;;;;12.87;67.38;100715.98;1613226;87;25984;-77
2021/06/11 02:26:28;;;;;;;9.93;6.90;;;;;;;12.84;67.53;100715.02;1662213;84;25931;-76
2021/06/11 02:28:55;;;;;;;9.25;6.65;;;;;;;12.81;67.47;100716.77;1633426;84;25931;-76
2021/06/11 02:31:22;;;;;;;8.93;7.12;;;;;;;12.79;67.59;100712.92;1669926;84;27562;-76
2021/06/11 02:33:49;;;;;;;9.93;7.55;;;;;;;12.77;67.80;100712.29;1631332;84;25849;-77
2021/06/11 02:36:16;;;;;;;11.33;8.33;;;;;;;12.77;67.92;100712.80;1604712;85;25868;-76
2021/06/11 02:38:43;;;;;;;14.35;9.48;;;;;;;12.81;68.39;100714.09;1674828;84;25828;-76
2021/06/11 02:41:15;;;;;;;12.45;7.20;;;;;;;12.81;68.51;100719.47;1672626;84;26539;-77
2021/06/11 02:43:43;;;;;;;10.25;6.83;;;;;;;12.76;68.30;100711.16;1652579;84;27565;-76
2021/06/11 02:46:36;;;;;;;10.13;7.47;;;;;;;12.74;68.30;100714.05;1633585;84;25923;-76
2021/06/11 02:49:14;;;;;;;8.80;7.53;;;;;;;12.71;68.34;100713.59;1677177;84;26148;-76
2021/06/11 02:51:43;;;;;;;10.20;8.55;;;;;;;12.69;68.56;100716.48;1654530;84;25893;-77
2021/06/11 02:54:18;;;;;;;10.45;8.20;;;;;;;12.70;69.08;100720.82;1672741;84;25801;-77
2021/06/11 02:57:05;;;;;;;10.72;8.05;;;;;;;12.71;68.97;100713.59;1670651;84;28168;-77
2021/06/11 02:59:36;;;;;;;13.38;9.13;;;;;;;12.70;68.92;100715.44;1618929;86;25847;-77
2021/06/11 03:02:07;;;;;;;10.05;7.97;;;;;;;12.68;69.13;100712.66;1619806;87;25936;-76
2021/06/11 03:04:38;;;;;;;10.58;8.18;;;;;;;12.69;69.21;100721.86;1671352;84;25757;-76
2021/06/11 03:07:06;;;;;;;14.53;8.23;;;;;;;12.72;69.45;100720.14;1630849;84;26770;-77
2021/06/11 03:09:36;;;;;;;16.40;10.08;;;;;;;12.76;69.64;100712.50;1627210;84;27479;-77
2021/06/11 03:12:06;;;;;;;10.65;9.18;;;;;;;12.78;69.77;100708.59;1649692;85;25911;-77
2021/06/11 03:14:35;;;;;;;17.82;10.00;;;;;;;12.82;70.06;100714.39;1667431;84;26377;-76
2021/06/11 03:17:03;;;;;;;13.65;9.43;;;;;;;12.86;69.90;100712.45;1596339;87;26082;-76
2021/06/11 03:19:34;;;;;;;16.93;9.50;;;;;;;12.91;70.07;100713.20;1626417;86;25855;-77
2021/06/11 03:22:14;;;;;;;;;;;;;;;12.93;70.24;100708.45;1622082;87;27476;-76
2021/06/11 03:25:03;;;;;;;12.65;9.65;;;;;;;12.95;70.33;100709.08;1632775;86;26278;-77
2021/06/11 03:27:41;;;;;;;11.12;9.53;;;;;;;12.96;70.52;100708.88;1670650;84;25834;-77
2021/06/11 03:30:12;;;;;;;14.47;9.90;;;;;;;13.03;70.40;100712.44;1617387;87;25963;-76
2021/06/11 03:32:44;;;;;;;14.90;10.23;;;;;;;13.11;70.29;100704.22;1671910;84;26559;-76
2021/06/11 03:35:19;;;;;;;11.65;8.93;;;;;;;13.21;70.22;100712.44;1618046;86;27957;-77
2021/06/11 03:37:51;;;;;;;11.25;9.20;;;;;;;13.27;70.19;100704.91;1649879;85;25388;-77
2021/06/11 03:40:25;;;;;;;13.48;9.58;;;;;;;13.35;70.26;100710.94;1615252;86;25908;-76
2021/06/11 03:42:54;;;;;;;11.33;8.58;;;;;;;13.44;70.37;100712.93;1649912;85;26397;-77
2021/06/11 03:45:23;;;;;;;9.55;8.13;;;;;;;13.53;70.45;100709.87;1627714;85;26014;-77
2021/06/11 03:47:52;;;;;;;10.43;8.28;;;;;;;13.58;70.39;100715.45;1554945;87;28339;-77
2021/06/11 03:50:23;;;;;;;10.00;8.58;;;;;;;13.62;70.33;100711.31;1654524;84;25796;-77
2021/06/11 03:52:54;;;;;;;11.48;9.43;;;;;;;13.70;70.55;100714.35;1642339;85;25780;-76
2021/06/11 03:55:25;;;;;;;11.70;9.15;;;;;;;13.75;70.67;100711.34;1638455;86;26586;-77
2021/06/11 03:57:57;;;;;;;14.30;9.40;;;;;;;13.80;70.77;100713.43;1634811;85;25866;-76
2021/06/11 04:00:25;;;;;;;12.80;8.98;;;;;;;13.87;70.93;100711.58;1595188;87;27539;-76
2021/06/11 04:02:53;;;;;;;11.83;9.38;;;;;;;13.96;71.22;100716.25;1643231;85;25971;-76
2021/06/11 04:05:21;;;;;;;12.85;9.73;;;;;;;14.06;71.19;100717.50;1638817;86;25861;-76
2021/06/11 04:07:58;;;;;;;12.45;9.93;;;;;;;14.18;71.27;100717.19;1593258;86;26027;-76
2021/06/11 04:10:36;;;;;;;12.78;9.70;;;;;;;14.30;71.33;100716.93;1627487;84;26035;-77
2021/06/11 04:13:17;;;;;;;14.10;10.00;;;;;;;14.43;71.46;100708.84;1643746;86;28160;-77
2021/06/11 04:15:50;;;;;;;11.75;9.38;;;;;;;14.59;71.44;100712.94;1673403;84;25848;-76
2021/06/11 04:18:27;;;;;;;11.10;8.98;;;;;;;14.69;71.29;100712.01;1643923;85;26015;-77
2021/06/11 04:21:00;;;;;;;13.78;9.55;;;;;;;14.77;71.32;100710.94;1643323;85;26444;-77
2021/06/11 04:23:34;;;;;;;12.00;8.75;;;;;;;14.85;71.31;100706.66;1646144;85;25649;-77
2021/06/11 04:26:03;;;;;;;12.45;7.85;;;;;;;14.96;71.36;100706.02;1639577;86;28155;-77
2021/06/11 04:28:33;;;;;;;11.88;8.55;;;;;;;15.05;71.19;100707.44;1621744;85;25759;-77
2021/06/11 04:31:01;;;;;;;13.10;9.28;;;;;;;15.11;71.31;100718.21;1622162;86;25901;-77
2021/06/11 04:33:31;;;;;;;9.80;8.80;;;;;;;15.16;71.24;100722.97;1650191;85;26429;-77
2021/06/11 04:36:00;;;;;;;9.45;8.45;;;;;;;15.21;71.38;100717.74;1604161;85;26032;-77
2021/06/11 04:38:27;;;;;;;8.90;7.85;;;;;;;15.27;71.78;100715.53;1676342;84;28732;-77
2021/06/11 04:40:54;;;;;;;11.55;8.53;;;;;;;15.38;71.72;100716.21;1614196;87;26005;-77
2021/06/11 04:43:24;;;;;;;8.18;7.35;;;;;;;15.50;71.75;100716.41;1647891;86;26512;-77
2021/06/11 04:45:52;;;;;;;8.15;7.30;;;;;;;15.65;71.82;100716.44;1618704;86;26583;-77
2021/06/11 04:48:19;;;;;;;8.25;7.10;;;;;;;15.81;72.19;100719.12;1572886;88;25913;-77
2021/06/11 04:50:46;;;;;;;9.88;7.47;;;;;;;15.94;72.21;100720.38;1637510;85;27617;-77
2021/06/11 04:53:13;;;;;;;10.93;7.03;;;;;;;16.06;71.83;100715.41;1611453;88;25987;-77
2021/06/11 04:55:40;;;;;;;9.63;6.50;;;;;;;16.17;71.69;100723.32;1639697;85;25860;-77
2021/06/11 04:58:07;;;;;;;8.38;6.40;;;;;;;16.25;71.47;100716.83;1604404;85;25939;-77
2021/06/11 05:00:34;;;;;;;7.72;6.17;;;;;;;16.36;71.35;100719.63;1582027;89;25967;-76
2021/06/11 05:03:01;;;;;;;7.87;6.12;;;;;;;16.45;71.22;100718.30;1599455;86;27536;-77
2021/06/11 05:05:28;;;;;;;8.55;6.08;;;;;;;16.55;71.26;100721.91;1613421;87;25850;-76
2021/06/11 05:07:55;;;;;;;6.67;5.62;;;;;;;16.63;71.25;100723.80;1627300;84;25928;-76
2021/06/11 05:10:22;;;;;;;6.60;6.00;;;;;;;16.72;71.14;100718.37;1670501;84;26496;-77
2021/06/11 05:12:49;;;;;;;7.72;6.37;;;;;;;16.80;71.03;100716.75;1670999;84;26007;-76
2021/06/11 05:15:18;;;;;;;6.35;5.35;;;;;;;16.89;71.24;100718.64;1621885;84;27438;-76
2021/06/11 05:17:45;;;;;;;9.43;5.25;;;;;;;17.01;70.89;100721.41;1653518;84;26272;-76
2021/06/11 05:20:14;;;;;;;8.43;4.85;;;;;;;17.12;70.59;100717.95;1670539;84;25369;-77
2021/06/11 05:22:41;;;;;;;5.25;4.28;;;;;;;17.21;69.79;100720.14;1637968;86;25851;-75
2021/06/11 05:25:09;;;;;;;6.70;4.75;;;;;;;17.31;68.99;100715.00;1635775;87;26110;-76
2021/06/11 05:27:36;;;;;;;6.03;3.98;;;;;;;17.40;68.52;100713.64;1596679;85;27575;-77
2021/06/11 05:30:05;;;;;;;5.60;3.98;;;;;;;17.49;68.44;100712.25;1595795;87;25425;-77
2021/06/11 05:32:32;;;;;;;6.83;4.12;;;;;;;17.59;68.09;100724.77;1650998;84;25930;-77
2021/06/11 05:34:59;;;;;;;6.45;4.05;;;;;;;17.67;67.94;100732.57;1650277;85;25902;-77
2021/06/11 05:37:26;;;;;;;4.92;3.90;;;;;;;17.75;67.58;100722.48;1600762;85;25836;-77
2021/06/11 05:39:53;;;;;;;4.28;3.77;;;;;;;17.82;67.59;100723.19;1598546;87;27502;-77
2021/06/11 05:42:20;;;;;;;3.87;3.37;;;;;;;17.85;67.10;100718.15;1678047;84;25902;-77
2021/06/11 05:44:47;;;;;;;5.10;3.52;;;;;;;17.90;66.57;100722.88;1652236;85;25871;-77
2021/06/11 05:47:14;;;;;;;7.28;3.77;;;;;;;17.96;66.74;100720.07;1629760;84;25998;-77
2021/06/11 05:49:41;;;;;;;3.65;3.20;;;;;;;18.02;66.27;100725.08;1680172;84;25978;-77
2021/06/11 05:52:09;;;;;;;3.83;3.30;;;;;;;18.09;66.43;100721.75;1637081;85;27564;-77
2021/06/11 05:54:36;;;;;;;4.62;4.00;;;;;;;18.15;66.19;100720.81;1616431;87;25879;-77
2021/06/11 05:57:05;;;;;;;6.47;3.67;;;;;;;18.20;65.78;100714.97;1597951;86;25759;-77
2021/06/11 05:59:34;;;;;;;3.77;3.40;;;;;;;18.28;65.64;100718.69;1650656;84;25808;-78
2021/06/11 06:02:01;;;;;;;3.98;3.10;;;;;;;18.38;65.18;100722.19;1641954;86;26528;-77
2021/06/11 06:04:28;;;;;;;5.85;3.52;;;;;;;18.45;64.65;100725.11;1594954;88;26862;-77
2021/06/11 06:07:00;;;;;;;4.03;3.55;;;;;;;18.52;64.67;100728.27;1590382;87;25906;-77
2021/06/11 06:09:27;;;;;;;3.77;3.27;;;;;;;18.59;64.33;100727.06;1601913;88;25631;-77
2021/06/11 06:11:54;;;;;;;4.58;3.30;;;;;;;18.68;64.58;100742.47;1650644;85;26552;-77
2021/06/11 06:14:21;;;;;;;5.15;3.17;;;;;;;18.70;63.95;100743.05;1621480;85;25875;-77
2021/06/11 06:16:48;;;;;;;5.05;3.02;;;;;;;18.69;63.26;100737.34;1564073;88;27526;-77
2021/06/11 06:19:15;;;;;;;4.80;3.08;;;;;;;18.64;62.80;100735.86;1676130;84;25759;-77
2021/06/11 06:21:42;;;;;;;4.40;3.15;;;;;;;18.58;63.00;100734.93;1672530;84;25972;-77
2021/06/11 06:24:09;;;;;;;5.62;3.05;;;;;;;18.57;62.53;100732.43;1649139;84;25955;-77
2021/06/11 06:26:36;;;;;;;4.10;2.65;;;;;;;18.56;62.62;100740.28;1572933;87;25933;-77
2021/06/11 06:29:03;;;;;;;3.42;2.90;;;;;;;18.63;62.85;100739.62;1651531;84;27500;-77
2021/06/11 06:31:31;;;;;;;6.95;2.67;;;;;;;18.68;62.75;100740.58;1676238;84;25795;-77
2021/06/11 06:33:58;;;;;;;3.45;2.90;;;;;;;18.80;62.35;100739.20;1640662;85;25862;-77
2021/06/11 06:36:25;;;;;;;4.03;3.10;;;;;;;18.91;62.42;100735.13;1664054;85;25872;-77
2021/06/11 06:38:55;;;;;;;2.85;2.62;;;;;;;19.04;62.00;100740.84;1599569;86;25851;-77
2021/06/11 06:41:22;;;;;;;5.10;3.50;;;;;;;19.11;60.94;100736.12;1635075;85;28331;-77
2021/06/11 06:43:49;;;;;;;5.15;3.60;;;;;;;19.19;61.27;100742.53;1641424;85;25822;-77
2021/06/11 06:46:21;;;;;;;4.90;3.60;;;;;;;19.19;60.69;100733.86;1673179;84;26075;-77
2021/06/11 06:48:45;;;;;;;3.27;2.98;;;;;;;19.26;61.40;100739.16;1627447;84;25871;-77
2021/06/11 06:51:12;;;;;;;4.15;3.40;;;;;;;19.39;59.90;100736.73;1626027;84;25895;-76
2021/06/11 06:53:40;;;;;;;4.90;3.30;;;;;;;19.50;60.02;100731.27;1647802;86;27569;-80
2021/06/11 06:56:10;;;;;;;6.25;3.40;;;;;;;19.57;60.16;100716.98;1639384;85;26648;-78
2021/06/11 06:58:37;;;;;;;3.87;3.45;;;;;;;19.64;60.12;100712.23;1591841;87;26006;-76
2021/06/11 07:01:05;;;;;;;6.67;3.70;;;;;;;19.69;59.91;100717.78;1599043;87;25699;-76
2021/06/11 07:03:36;;;;;;;6.65;4.12;;;;;;;19.80;60.12;100716.88;1613445;87;25831;-77
2021/06/11 07:06:03;;;;;;;4.90;3.87;;;;;;;19.92;60.24;100712.75;1647526;85;28307;-76
2021/06/11 07:08:33;;;;;;;7.65;3.62;;;;;;;20.03;60.31;100716.47;1598116;85;26609;-77
2021/06/11 07:11:00;;;;;;;4.40;2.80;;;;;;;20.14;60.22;100709.61;1597036;85;25909;-77
2021/06/11 07:13:31;;;;;;;3.75;2.95;;;;;;;20.26;59.64;100714.45;1640958;85;26551;-77
2021/06/11 07:15:57;;;;;;;5.60;3.10;;;;;;;20.36;58.84;100713.25;1650809;85;25823;-77
2021/06/11 07:18:25;;;;;;;3.17;2.58;;;;;;;20.37;58.23;100709.47;1592734;87;28214;-77
2021/06/11 07:20:52;;;;;;;4.53;3.00;;;;;;;20.38;57.51;100712.47;1621451;85;25914;-77
2021/06/11 07:23:19;;;;;;;4.28;3.10;;;;;;;20.38;57.14;100702.14;1675249;84;25788;-77
2021/06/11 07:25:46;;;;;;;3.30;2.95;;;;;;;20.44;57.08;100706.05;1644505;86;25883;-77
2021/06/11 07:28:13;;;;;;;3.33;2.92;;;;;;;20.54;57.12;100710.28;1598337;85;25975;-77
2021/06/11 07:30:40;;;;;;;4.05;3.25;;;;;;;20.59;56.82;100711.70;1601064;87;28857;-77
2021/06/11 07:33:07;;;;;;;4.12;2.87;;;;;;;20.58;56.00;100716.05;1613112;85;25865;-77
2021/06/11 07:35:35;;;;;;;4.25;2.60;;;;;;;20.59;55.74;100714.98;1674855;84;25992;-77
2021/06/11 07:38:04;;;;;;;4.20;2.95;;;;;;;20.61;56.36;100721.00;1591231;86;26588;-77
2021/06/11 07:40:32;;;;;;;2.98;2.47;;;;;;;20.65;56.29;100716.17;1585352;87;25834;-76
2021/06/11 07:43:01;;;;;;;2.87;2.55;;;;;;;20.75;56.20;100718.20;1652006;85;27528;-77
2021/06/11 07:45:28;;;;;;;3.50;2.50;;;;;;;20.76;55.89;100714.42;1646166;85;25842;-77
2021/06/11 07:47:55;;;;;;;4.12;2.08;;;;;;;20.83;55.72;100712.88;1570740;88;25859;-77
2021/06/11 07:50:22;;;;;;;3.08;2.45;;;;;;;20.94;54.91;100709.20;1596135;85;26203;-77
2021/06/11 07:52:50;;;;;;;3.98;2.05;;;;;;;21.01;54.97;100704.40;1679759;84;26440;-77
2021/06/11 07:55:17;;;;;;;2.60;1.90;;;;;;;21.14;54.62;100713.59;1669041;84;27538;-77
2021/06/11 07:57:44;;;;;;;5.12;2.17;;;;;;;21.20;53.64;100710.69;1623183;84;26397;-77
2021/06/11 08:00:12;;;;;;;4.35;1.92;;;;;;;21.21;53.67;100713.67;1596035;86;25953;-78
2021/06/11 08:02:43;;;;;;;4.05;2.10;;;;;;;21.27;53.45;100707.77;1623188;87;26842;-77
2021/06/11 08:05:11;;;;;;;3.30;2.37;;;;;;;21.32;53.48;100709.20;1667995;84;26338;-77
2021/06/11 08:07:38;;;;;;;4.10;2.10;;;;;;;21.34;53.90;100705.69;1629276;84;27069;-76
2021/06/11 08:10:06;;;;;;;5.75;2.12;;;;;;;21.35;53.38;100703.23;1604552;85;26597;-77
2021/06/11 08:12:33;;;;;;;2.98;2.12;;;;;;;21.33;52.98;100710.30;1647487;85;25856;-77
2021/06/11 08:15:00;;;;;;;3.60;1.82;;;;;;;21.30;52.69;100709.97;1649612;85;26929;-77
2021/06/11 08:17:27;;;;;;;3.17;2.00;;;;;;;21.29;52.31;100713.25;1591323;86;25729;-76
2021/06/11 08:19:54;;;;;;;4.70;2.30;;;;;;;21.30;52.72;100714.05;1565980;87;28260;-77
2021/06/11 08:22:21;;;;;;;3.52;1.98;;;;;;;21.35;52.73;100713.59;1652258;85;25818;-76
2021/06/11 08:24:48;;;;;;;4.03;2.30;;;;;;;21.41;53.58;100705.76;1651749;85;25857;-77
2021/06/11 08:27:15;;;;;;;3.47;2.22;;;;;;;21.46;53.16;100711.81;1602335;86;26049;-77
2021/06/11 08:29:43;;;;;;;6.53;2.50;;;;;;;21.42;52.92;100709.31;1578034;85;26586;-77
2021/06/11 08:32:10;;;;;;;3.12;2.47;;;;;;;21.47;53.51;100705.27;1624838;87;27610;-77
2021/06/11 08:34:37;;;;;;;5.40;2.75;;;;;;;21.56;53.48;100695.56;1671586;84;25797;-77
2021/06/11 08:37:06;;;;;;;3.95;2.22;;;;;;;21.69;53.71;100690.23;1628736;84;26644;-76
2021/06/11 08:39:34;;;;;;;6.55;2.70;;;;;;;21.80;54.48;100691.45;1650804;84;26594;-76
2021/06/11 08:42:02;;;;;;;2.25;2.05;;;;;;;21.91;53.63;100693.77;1639948;85;25955;-76
2021/06/11 08:44:29;;;;;;;3.10;2.47;;;;;;;21.90;53.14;100694.30;1652064;84;27511;-76
2021/06/11 08:46:56;;;;;;;5.87;2.42;;;;;;;21.90;53.29;100698.39;1639305;85;25962;-76
2021/06/11 08:49:24;;;;;;;7.67;2.60;;;;;;;21.86;52.87;100697.27;1635338;84;25910;-76
2021/06/11 08:51:59;;;;;;;5.42;2.83;;;;;;;21.81;53.26;100694.45;1641339;85;25890;-76
2021/06/11 08:54:27;;;;;;;3.17;2.37;;;;;;;21.77;53.02;100694.69;1639231;86;26530;-76
2021/06/11 08:56:54;;;;;;;6.40;2.98;;;;;;;21.67;52.63;100689.67;1593166;87;27485;-76
2021/06/11 08:59:21;;;;;;;3.75;2.72;;;;;;;21.60;52.87;100694.53;1627061;85;25524;-76
2021/06/11 09:01:50;;;;;;;11.70;2.90;;;;;;;21.54;53.63;100693.63;1643030;85;26587;-76
2021/06/11 09:04:40;;;;;;;3.47;2.45;;;;;;;21.53;53.30;100689.81;1680534;84;25829;-76
2021/06/11 09:07:33;;;;;;;4.33;2.90;;;;;;;21.50;53.27;100690.61;1568781;90;26449;-76
2021/06/11 09:10:08;;;;;;;3.77;2.33;;;;;;;21.49;53.46;100687.58;1559762;90;27566;-76
2021/06/11 09:12:42;;;;;;;5.75;2.90;;;;;;;21.59;54.24;100696.95;1629012;84;25970;-76
2021/06/11 09:15:13;;;;;;;4.08;2.60;;;;;;;21.56;53.17;100696.92;1640819;86;25626;-77
2021/06/11 09:17:50;;;;;;;4.42;2.72;;;;;;;21.56;52.74;100694.73;1617448;87;26066;-76
2021/06/11 09:20:25;;;;;;;4.33;2.90;;;;;;;21.56;52.95;100694.73;1653288;84;25969;-76
2021/06/11 09:22:55;;;;;;;3.75;2.33;;;;;;;21.62;53.70;100693.17;1670858;84;27539;-77
2021/06/11 09:25:37;;;;;;;2.65;2.25;;;;;;;21.62;52.16;100693.73;1672084;84;25419;-76
2021/06/11 09:28:08;;;;;;;4.90;2.70;;;;;;;21.62;52.16;100693.73;1636965;85;26487;-76
2021/06/11 09:30:44;;;;;;;2.50;2.30;;;;;;;21.59;52.40;100695.59;1633934;85;26781;-76
2021/06/11 09:33:17;;;;;;;3.40;2.67;;;;;;;21.59;52.41;100694.23;1645815;85;25898;-76
2021/06/11 09:35:51;;;;;;;2.92;2.62;;;;;;;21.60;52.22;100693.17;1672381;84;27473;-76
2021/06/11 09:38:30;;;;;;;3.33;2.90;;;;;;;21.62;52.58;100686.91;1657532;84;26687;-77
2021/06/11 09:41:04;;;;;;;6.05;3.00;;;;;;;21.67;53.00;100687.78;1573057;87;25769;-76
2021/06/11 09:43:32;;;;;;;6.20;2.67;;;;;;;21.80;52.46;100687.36;1648436;85;25839;-76
2021/06/11 09:46:13;;;;;;;4.97;2.58;;;;;;;21.87;51.91;100693.48;1645031;85;25861;-76
2021/06/11 09:48:46;;;;;;;2.92;2.20;;;;;;;21.88;52.53;100694.27;1618744;87;28194;-76
2021/06/11 09:51:20;;;;;;;4.50;2.27;;;;;;;21.89;52.68;100693.20;1626324;84;25741;-76
2021/06/11 09:53:47;;;;;;;2.95;2.33;;;;;;;21.93;53.20;100695.16;1621347;87;26560;-76
2021/06/11 09:56:22;;;;;;;4.60;2.22;;;;;;;22.00;52.65;100693.59;1648234;85;25834;-76
2021/06/11 09:58:50;;;;;;;3.05;2.37;;;;;;;21.99;51.54;100693.30;1607442;84;25874;-76
2021/06/11 10:01:19;;;;;;;4.67;2.80;;;;;;;21.97;51.51;100689.47;1641290;85;28131;-76
2021/06/11 10:03:49;;;;;;;3.12;2.45;;;;;;;22.00;51.87;100687.59;1617485;86;25872;-76
2021/06/11 10:06:19;;;;;;;3.27;2.70;;;;;;;21.99;51.78;100690.56;1671499;84;25566;-76
2021/06/11 10:08:49;;;;;;;3.08;2.42;;;;;;;21.95;51.22;100683.45;1614211;86;26536;-76
2021/06/11 10:11:26;;;;;;;4.30;2.47;;;;;;;21.98;51.89;100669.28;1583867;87;25837;-76
2021/06/11 10:13:58;;;;;;;2.95;2.25;;;;;;;22.08;51.79;100672.11;1649355;84;27545;-76
2021/06/11 10:16:26;;;;;;;4.53;2.58;;;;;;;22.12;51.45;100670.50;1643183;85;25851;-76
2021/06/11 10:18:53;;;;;;;8.60;2.37;;;;;;;22.21;51.01;100668.95;1638177;86;25864;-77
2021/06/11 10:21:20;;;;;;;5.35;1.72;;;;;;;22.26;50.93;100669.53;1624386;87;25954;-77
2021/06/11 10:23:47;;;;;;;4.12;2.40;;;;;;;22.27;50.62;100668.43;1615043;85;25859;-77
2021/06/11 10:26:14;;;;;;;3.60;1.87;;;;;;;22.31;51.30;100672.28;1641815;85;28287;-77
2021/06/11 10:28:47;;;;;;;2.45;1.95;;;;;;;22.31;50.41;100672.81;1636452;86;26622;-77
2021/06/11 10:31:19;;;;;;;2.47;1.75;;;;;;;22.31;50.67;100675.00;1603198;87;25831;-77
2021/06/11 10:33:53;;;;;;;4.05;1.80;;;;;;;22.32;50.59;100671.20;1650666;84;26601;-77
2021/06/11 10:36:33;;;;;;;2.30;2.00;;;;;;;22.36;50.07;100672.33;1675383;84;25919;-77
2021/06/11 10:39:16;;;;;;;5.80;1.70;;;;;;;22.30;49.97;100672.02;1657803;84;27572;-77
2021/06/11 10:42:13;;;;;;;2.85;1.75;;;;;;;22.26;49.42;100673.63;1658274;85;25974;-77
2021/06/11 10:44:52;;;;;;;3.60;1.92;;;;;;;22.21;49.37;100664.85;1613721;86;25930;-77
2021/06/11 10:47:23;;;;;;;4.87;2.17;;;;;;;22.25;50.50;100665.14;1596353;88;26376;-77
2021/06/11 10:50:01;;;;;;;4.60;2.20;;;;;;;22.34;50.15;100660.02;1648585;85;26034;-77
2021/06/11 10:52:47;;;;;;;3.22;2.50;;;;;;;22.38;50.17;100661.97;1668982;84;27553;-77
2021/06/11 10:55:24;;;;;;;4.87;2.27;;;;;;;22.46;50.05;100657.91;1649867;84;25717;-77
2021/06/11 10:58:00;;;;;;;6.10;2.35;;;;;;;22.45;50.77;100656.28;1670730;84;25781;-77
2021/06/11 11:00:33;;;;;;;2.67;2.37;;;;;;;22.43;50.41;100657.91;1632185;87;26364;-76
2021/06/11 11:03:07;;;;;;;4.30;2.52;;;;;;;22.42;49.87;100660.35;1654649;84;25877;-76
2021/06/11 11:05:37;;;;;;;7.00;2.55;;;;;;;22.42;49.87;100649.97;1651226;84;27549;-77
2021/06/11 11:08:07;;;;;;;3.77;2.20;;;;;;;22.47;51.06;100655.47;1676298;84;26504;-77
2021/06/11 11:10:52;;;;;;;2.50;2.30;;;;;;;22.51;49.75;100649.23;1646840;84;25916;-77
2021/06/11 11:13:17;;;;;;;5.65;2.20;;;;;;;22.54;50.42;100644.58;1664398;85;26486;-77
2021/06/11 11:15:50;;;;;;;7.47;1.90;;;;;;;22.59;50.05;100643.83;1614371;86;25883;-77
2021/06/11 11:18:34;;;;;;;8.85;2.58;;;;;;;22.74;51.04;100630.26;1673723;84;27622;-77
2021/06/11 11:21:21;;;;;;;5.72;2.52;;;;;;;22.82;51.08;100628.38;1681853;84;25817;-76
2021/06/11 11:23:58;;;;;;;3.67;2.10;;;;;;;22.94;50.65;100625.73;1639819;86;26626;-77
2021/06/11 11:26:48;;;;;;;4.85;2.30;;;;;;;23.03;50.03;100620.00;1589229;87;25965;-77
2021/06/11 11:29:18;;;;;;;5.40;2.33;;;;;;;23.09;49.39;100618.12;1671961;84;25897;-76
2021/06/11 11:31:48;;;;;;;7.50;2.02;;;;;;;23.22;49.33;100608.05;1653726;84;27200;-77
2021/06/11 11:34:16;;;;;;;6.37;2.10;;;;;;;23.33;49.06;100605.63;1616676;84;25912;-77
2021/06/11 11:36:43;;;;;;;3.02;2.08;;;;;;;23.44;47.96;100610.03;1674621;84;25798;-77
2021/06/11 11:39:12;;;;;;;3.17;2.22;;;;;;;23.53;48.26;100607.05;1644860;86;25909;-77